首页
METAR-TAF:

METAR-TAF

机场 :

福島機場

郡山, 日本

纬度: 37-24N, 经度: 140-23E, 海拔: 372米

当前天气观测

该预报发布于19分钟前的09:11 UTC
风速12节,风向
温度 10°C
湿度 100%
气压 999 hPa
能見度: 5000
少量云层高于100英尺
多云层高于1500英尺
多云层高于2000英尺
小雨, 轻雾

METAR: RJSF 010911Z 36012KT 5000 -RA BR FEW001 BKN015 BKN020 10/10 Q0999 RMK 1ST001 5CU015 7SC020 A2952

时间: 18:30 (09:30 UTC)

预报

该预报发布于4小时和25分钟前的05:05 UTC
预报有效从01日的 06点(UTC)到 02日的 12点(UTC)
风速6节,风向南转西南
能見度: 6000
少量云层高于1000英尺
多云层高于1500英尺
多云层高于2000英尺
小阵雨
短暂存在
从 01日的 06点(UTC)到 01日的 09点(UTC)
能見度: 3000
少量云层高于200英尺
多云层高于500英尺
多云层高于800英尺
小雨, 轻雾
成为
从 01日的 07点(UTC)到 01日的 09点(UTC)
风速15节,风向
短暂存在
从 01日的 09点(UTC)到 01日的 15点(UTC)
能見度: 1500
少量云层高于100英尺
多云层高于300英尺
多云层高于500英尺
阵雨, 轻雾
短暂存在
从 01日的 15点(UTC)到 01日的 21点(UTC)
风速20节,风向西北,有时为30节阵风
能見度: 3000
少量云层高于500英尺
多云层高于800英尺
多云层高于1500英尺
小阵雨, 轻雾
短暂存在
从 01日的 21点(UTC)到 02日的 06点(UTC)
风速25节,风向西北,有时为35节阵风

TAF: RJSF 010505Z 0106/0212 20006KT 6000 -SHRA FEW010 BKN015 BKN020 TEMPO 0106/0109 3000 -RA BR FEW002 BKN005 BKN008 BECMG 0107/0109 35015KT TEMPO 0109/0115 1500 SHRA BR FEW001 BKN003 BKN005 TEMPO 0115/0121 32020G30KT 3000 -SHRA BR FEW005 BKN008 BKN015 TEMPO 0121/0206 32025G35KT

超过4000个机场的气象观测和天气预报(METAR&TAF报告)。

可查询的气象台以黄色和红色小点在地图上表示。

将鼠标移到小点上方,可查看气象台名称。

然后点击查看天气观测和预报。

如需切换地图:点击带黑十字的绿色按钮放大地图;点击带横线的绿色按钮缩小地图;或者点击绿色箭头查看邻近地区的地图。


METAR-TAF: